Fiske, Canada
Current Conditions -  °F | °C
As of 8:00 PM on Saturday 22 Nov 2014 (Local Time) from CYKY Reporting Station
Light Snow Light Snow  
Wind Chill:   Ceiling: 800
Heat Index: 23°   Visibility: 3mi
Dew Point: 19°   Wind: 17mph
Humidity: 86%   Direction: 360°N
Pressure: 29.29"   Gusts: NA
Location:  51.49°N, 108.39°W
Report Text: CYKY 230200Z 36015KT 3SM -SN DRSN OVC008 M05/M07 A2929 RMK SC8 PRESRR SLP948
Loading
Personal Weather Stations






























Interactive Weather Map New forecast layout! Learn more

10-Day Weather Forecast

Advertisements
Track Severe Weather on mobile